PAA238 YMAV-YMML
Flight info
| Callsign | PAA238 |
|---|---|
| Flight time | 0h 12m |
| Altitude | 5000 |
| Route | JUSTY3 ML DCT |
| Aircraft | A359/H-SDE2E3GHIJ3J4J5LM1ORWXY/LB1D1 |
Departure
| Time | 2026-04-21 07:08 |
|---|---|
| Airport | Melbourne Avalon International Airport (YMAV) |
Arrival
| Time | 2026-04-21 07:20 |
|---|---|
| Airport | Melbourne Airport (YMML) |
| Time | Latitude | Longitude | Altitude | Speed | Heading |
|---|---|---|---|---|---|
| 2026-04-21 06:49 | -38.02724 | 144.47210 | 42 ft | 0 kts | 7° |
| 2026-04-21 06:56 | -38.02727 | 144.47210 | 42 ft | 2 kts | 7° |
| 2026-04-21 06:57 | -38.02752 | 144.47205 | 40 ft | 3 kts | 7° |
| 2026-04-21 06:57 | -38.02774 | 144.47199 | 40 ft | 4 kts | 43° |
| 2026-04-21 06:57 | -38.02783 | 144.47172 | 38 ft | 4 kts | 95° |
| 2026-04-21 06:57 | -38.02781 | 144.47146 | 38 ft | 1 kts | 96° |
| 2026-04-21 06:58 | -38.02780 | 144.47141 | 38 ft | 0 kts | 96° |
| 2026-04-21 07:00 | -38.02784 | 144.47189 | 42 ft | 11 kts | 95° |
| 2026-04-21 07:00 | -38.02801 | 144.47310 | 41 ft | 17 kts | 114° |
| 2026-04-21 07:00 | -38.02919 | 144.47355 | 42 ft | 22 kts | 185° |
| 2026-04-21 07:01 | -38.03029 | 144.47332 | 42 ft | 26 kts | 191° |
| 2026-04-21 07:01 | -38.03204 | 144.47209 | 39 ft | 32 kts | 234° |
| 2026-04-21 07:01 | -38.03616 | 144.47007 | 43 ft | 35 kts | 187° |
| 2026-04-21 07:02 | -38.03861 | 144.46966 | 41 ft | 36 kts | 188° |
| 2026-04-21 07:02 | -38.04113 | 144.46921 | 42 ft | 37 kts | 187° |
| 2026-04-21 07:02 | -38.04376 | 144.46877 | 42 ft | 39 kts | 187° |
| 2026-04-21 07:02 | -38.04642 | 144.46834 | 43 ft | 40 kts | 187° |
| 2026-04-21 07:03 | -38.04919 | 144.46787 | 43 ft | 41 kts | 187° |
| 2026-04-21 07:03 | -38.05204 | 144.46740 | 43 ft | 42 kts | 188° |
| 2026-04-21 07:03 | -38.05419 | 144.46661 | 43 ft | 4 kts | 227° |
| 2026-04-21 07:03 | -38.05425 | 144.46652 | 43 ft | 0 kts | 230° |
| 2026-04-21 07:06 | -38.05439 | 144.46606 | 43 ft | 15 kts | 258° |
| 2026-04-21 07:07 | -38.05393 | 144.46502 | 43 ft | 15 kts | 342° |
| 2026-04-21 07:07 | -38.05263 | 144.46514 | 43 ft | 37 kts | 7° |
| 2026-04-21 07:07 | -38.04720 | 144.46606 | 43 ft | 117 kts | 7° |
| 2026-04-21 07:07 | -38.03688 | 144.46782 | 93 ft | 177 kts | 12° |
| 2026-04-21 07:08 | -38.02357 | 144.47013 | 471 ft | 206 kts | 11° |
| 2026-04-21 07:08 | -38.00948 | 144.47287 | 1368 ft | 203 kts | 11° |
| 2026-04-21 07:08 | -37.99537 | 144.47615 | 1915 ft | 217 kts | 9° |
| 2026-04-21 07:08 | -37.97979 | 144.48054 | 2236 ft | 241 kts | 11° |
| 2026-04-21 07:09 | -37.96302 | 144.48551 | 2793 ft | 252 kts | 12° |
| 2026-04-21 07:09 | -37.94534 | 144.49070 | 3209 ft | 271 kts | 11° |
| 2026-04-21 07:09 | -37.92627 | 144.49627 | 3481 ft | 292 kts | 11° |
| 2026-04-21 07:09 | -37.90583 | 144.50223 | 3756 ft | 311 kts | 12° |
| 2026-04-21 07:10 | -37.88415 | 144.50837 | 4032 ft | 327 kts | 12° |
| 2026-04-21 07:10 | -37.86139 | 144.51479 | 4264 ft | 342 kts | 12° |
| 2026-04-21 07:10 | -37.83884 | 144.52573 | 4555 ft | 354 kts | 30° |
| 2026-04-21 07:10 | -37.82051 | 144.54615 | 4915 ft | 359 kts | 50° |
| 2026-04-21 07:11 | -37.80842 | 144.57387 | 5010 ft | 364 kts | 70° |
| 2026-04-21 07:11 | -37.80300 | 144.60522 | 5031 ft | 367 kts | 81° |
| 2026-04-21 07:11 | -37.79952 | 144.63720 | 5020 ft | 368 kts | 81° |
| 2026-04-21 07:11 | -37.79697 | 144.66945 | 5030 ft | 369 kts | 86° |
| 2026-04-21 07:12 | -37.79707 | 144.70184 | 5025 ft | 369 kts | 91° |
| 2026-04-21 07:12 | -37.79811 | 144.73433 | 5031 ft | 369 kts | 91° |
| 2026-04-21 07:12 | -37.79923 | 144.76672 | 5030 ft | 369 kts | 91° |
| 2026-04-21 07:12 | -37.80038 | 144.79909 | 5030 ft | 368 kts | 92° |
| 2026-04-21 07:13 | -37.80082 | 144.83125 | 5030 ft | 366 kts | 86° |
| 2026-04-21 07:13 | -37.79643 | 144.86280 | 5032 ft | 364 kts | 69° |
| 2026-04-21 07:13 | -37.78774 | 144.89264 | 4928 ft | 354 kts | 71° |
| 2026-04-21 07:13 | -37.78048 | 144.92157 | 4684 ft | 336 kts | 71° |
| 2026-04-21 07:14 | -37.77350 | 144.94906 | 4343 ft | 321 kts | 70° |
| 2026-04-21 07:14 | -37.76668 | 144.97497 | 4118 ft | 307 kts | 70° |
| 2026-04-21 07:14 | -37.75857 | 144.99864 | 3813 ft | 281 kts | 55° |
| 2026-04-21 07:14 | -37.74505 | 145.01506 | 3433 ft | 266 kts | 28° |
| 2026-04-21 07:15 | -37.72791 | 145.02167 | 3259 ft | 252 kts | 6° |
| 2026-04-21 07:15 | -37.71109 | 145.02357 | 3135 ft | 231 kts | 3° |
| 2026-04-21 07:15 | -37.69581 | 145.02475 | 3020 ft | 210 kts | 2° |
| 2026-04-21 07:15 | -37.68194 | 145.02581 | 2903 ft | 191 kts | 3° |
| 2026-04-21 07:16 | -37.66888 | 145.02675 | 2840 ft | 183 kts | 2° |
| 2026-04-21 07:16 | -37.65720 | 145.02114 | 2797 ft | 187 kts | 317° |
| 2026-04-21 07:16 | -37.65245 | 145.00601 | 2746 ft | 194 kts | 271° |
| 2026-04-21 07:16 | -37.65530 | 144.98956 | 2626 ft | 187 kts | 258° |
| 2026-04-21 07:17 | -37.65851 | 144.97419 | 2376 ft | 175 kts | 259° |
| 2026-04-21 07:17 | -37.66139 | 144.95988 | 2142 ft | 164 kts | 259° |
| 2026-04-21 07:17 | -37.66401 | 144.94634 | 1932 ft | 152 kts | 261° |
| 2026-04-21 07:17 | -37.66577 | 144.93380 | 1745 ft | 143 kts | 269° |
| 2026-04-21 07:18 | -37.66575 | 144.92139 | 1561 ft | 141 kts | 277° |
| 2026-04-21 07:18 | -37.66525 | 144.90899 | 1371 ft | 141 kts | 276° |
| 2026-04-21 07:18 | -37.66486 | 144.89657 | 1187 ft | 142 kts | 275° |
| 2026-04-21 07:18 | -37.66429 | 144.88412 | 1004 ft | 143 kts | 278° |
| 2026-04-21 07:19 | -37.66358 | 144.87157 | 815 ft | 143 kts | 278° |
| 2026-04-21 07:19 | -37.66290 | 144.85914 | 640 ft | 141 kts | 276° |
| 2026-04-21 07:19 | -37.66224 | 144.84688 | 466 ft | 142 kts | 278° |
| 2026-04-21 07:19 | -37.66146 | 144.83480 | 415 ft | 124 kts | 274° |
| 2026-04-21 07:20 | -37.66097 | 144.82600 | 407 ft | 56 kts | 274° |
| 2026-04-21 07:20 | -37.66130 | 144.82270 | 403 ft | 21 kts | 221° |
| 2026-04-21 07:20 | -37.66271 | 144.82222 | 396 ft | 24 kts | 179° |
| 2026-04-21 07:20 | -37.66394 | 144.82365 | 388 ft | 28 kts | 103° |
| 2026-04-21 07:21 | -37.66430 | 144.82608 | 390 ft | 27 kts | 100° |
| 2026-04-21 07:21 | -37.66448 | 144.82833 | 391 ft | 25 kts | 94° |
| 2026-04-21 07:21 | -37.66460 | 144.83043 | 399 ft | 22 kts | 94° |
| 2026-04-21 07:21 | -37.66471 | 144.83222 | 405 ft | 19 kts | 94° |
| 2026-04-21 07:22 | -37.66481 | 144.83384 | 404 ft | 18 kts | 94° |
| 2026-04-21 07:22 | -37.66491 | 144.83543 | 404 ft | 18 kts | 96° |
| 2026-04-21 07:22 | -37.66500 | 144.83704 | 405 ft | 19 kts | 93° |
| 2026-04-21 07:22 | -37.66514 | 144.83876 | 405 ft | 20 kts | 110° |
| 2026-04-21 07:23 | -37.66637 | 144.83954 | 404 ft | 23 kts | 170° |
| 2026-04-21 07:23 | -37.66813 | 144.83988 | 396 ft | 28 kts | 172° |
| 2026-04-21 07:23 | -37.67015 | 144.84025 | 391 ft | 32 kts | 172° |
| 2026-04-21 07:23 | -37.67246 | 144.84068 | 384 ft | 36 kts | 172° |
| 2026-04-21 07:24 | -37.67480 | 144.84133 | 378 ft | 25 kts | 137° |
| 2026-04-21 07:24 | -37.67534 | 144.84296 | 380 ft | 19 kts | 133° |
| 2026-04-21 07:24 | -37.67663 | 144.84354 | 376 ft | 22 kts | 171° |
| 2026-04-21 07:24 | -37.67837 | 144.84389 | 375 ft | 28 kts | 171° |
| 2026-04-21 07:25 | -37.68049 | 144.84427 | 367 ft | 33 kts | 171° |
| 2026-04-21 07:25 | -37.68289 | 144.84472 | 359 ft | 29 kts | 172° |
| 2026-04-21 07:25 | -37.68383 | 144.84563 | 356 ft | 18 kts | 109° |
| 2026-04-21 07:25 | -37.68399 | 144.84731 | 351 ft | 21 kts | 94° |
| 2026-04-21 07:26 | -37.68409 | 144.84923 | 359 ft | 23 kts | 94° |
| 2026-04-21 07:26 | -37.68421 | 144.85133 | 358 ft | 25 kts | 95° |
| 2026-04-21 07:26 | -37.68435 | 144.85357 | 357 ft | 26 kts | 94° |
| 2026-04-21 07:26 | -37.68457 | 144.85585 | 360 ft | 22 kts | 124° |
| 2026-04-21 07:27 | -37.68601 | 144.85647 | 357 ft | 24 kts | 175° |
| 2026-04-21 07:27 | -37.68665 | 144.85657 | 350 ft | 1 kts | 190° |
| 2026-04-21 07:27 | -37.68702 | 144.85593 | 351 ft | 0 kts | 256° |